createdAt,value
2023-05-08T00:00:19.088Z,10.52
2023-05-08T00:02:37.745Z,10.53
2023-05-08T00:04:33.289Z,10.54
2023-05-08T00:06:29.886Z,10.51
2023-05-08T00:08:25.617Z,10.51
2023-05-08T00:10:21.812Z,10.46
2023-05-08T00:12:18.403Z,10.41
2023-05-08T00:14:14.102Z,10.38
2023-05-08T00:16:10.223Z,10.36
2023-05-08T00:18:08.833Z,10.33
2023-05-08T00:20:05.844Z,10.29
2023-05-08T00:22:01.550Z,10.25
2023-05-08T00:23:56.881Z,10.18
2023-05-08T00:25:52.553Z,10.13
2023-05-08T00:27:47.885Z,10.13
2023-05-08T00:29:44.455Z,10.15
2023-05-08T00:31:40.806Z,10.15
2023-05-08T00:33:40.537Z,10.07
2023-05-08T00:35:36.090Z,9.99
2023-05-08T00:37:31.799Z,9.95
2023-05-08T00:39:27.384Z,9.94
2023-05-08T00:41:23.045Z,9.89
2023-05-08T00:43:19.671Z,9.86
2023-05-08T00:45:15.546Z,9.86
2023-05-08T00:47:11.718Z,9.83
2023-05-08T00:49:13.313Z,9.80
2023-05-08T00:51:11.475Z,9.79
2023-05-08T00:53:09.459Z,9.81
2023-05-08T00:55:08.409Z,9.79
2023-05-08T00:57:09.625Z,9.77
2023-05-08T00:59:08.920Z,9.76
2023-05-08T01:01:06.974Z,9.78
2023-05-08T01:03:05.718Z,9.74
2023-05-08T01:05:10.241Z,9.73
2023-05-08T01:07:06.567Z,9.73
2023-05-08T01:09:03.887Z,9.68
2023-05-08T01:11:10.532Z,9.62
2023-05-08T01:13:12.803Z,9.55
2023-05-08T01:15:15.709Z,9.54
2023-05-08T01:17:17.776Z,9.59
2023-05-08T01:19:31.260Z,9.56
2023-05-08T01:21:38.281Z,9.48
2023-05-08T01:24:13.176Z,9.48
2023-05-08T01:26:36.518Z,9.47
2023-05-08T01:28:56.284Z,9.40
2023-05-08T01:31:15.371Z,9.44
2023-05-08T01:33:20.715Z,9.40
2023-05-08T01:35:24.515Z,9.40
2023-05-08T01:37:27.105Z,9.40
2023-05-08T01:39:34.152Z,9.35
2023-05-08T01:41:31.114Z,9.31
2023-05-08T01:43:43.248Z,9.24
2023-05-08T01:45:42.669Z,9.19
2023-05-08T01:47:40.940Z,9.19
2023-05-08T01:49:43.854Z,9.17
2023-05-08T01:51:44.334Z,9.14
2023-05-08T01:53:44.053Z,9.10
2023-05-08T01:55:42.605Z,9.06
2023-05-08T01:57:42.871Z,9.07
2023-05-08T01:59:39.603Z,9.07
2023-05-08T02:01:37.136Z,9.01
2023-05-08T02:03:35.350Z,9.01
2023-05-08T02:05:34.239Z,8.98
2023-05-08T02:07:41.676Z,8.96
2023-05-08T02:09:37.857Z,8.95
2023-05-08T02:11:36.843Z,8.95
2023-05-08T02:13:34.693Z,8.92
2023-05-08T02:15:32.091Z,8.91
2023-05-08T02:17:28.142Z,8.94
2023-05-08T02:19:26.381Z,8.95
2023-05-08T02:21:26.373Z,8.90
2023-05-08T02:23:25.218Z,8.83
2023-05-08T02:25:21.890Z,8.74
2023-05-08T02:27:18.867Z,8.67
2023-05-08T02:29:14.166Z,8.62
2023-05-08T02:31:10.839Z,8.60
2023-05-08T02:33:08.845Z,8.55
2023-05-08T02:35:04.774Z,8.48
2023-05-08T02:37:04.886Z,8.47
2023-05-08T02:39:03.075Z,8.42
2023-05-08T02:41:01.989Z,8.38
2023-05-08T02:42:59.023Z,8.35
2023-05-08T02:44:54.976Z,8.38
2023-05-08T02:46:59.785Z,8.36
2023-05-08T02:49:02.343Z,8.30
2023-05-08T02:51:03.516Z,8.28
2023-05-08T02:53:08.185Z,8.29
2023-05-08T02:55:09.302Z,8.28
2023-05-08T02:57:10.920Z,8.23
2023-05-08T02:59:18.129Z,8.21
2023-05-08T03:01:20.839Z,8.16
2023-05-08T03:03:23.222Z,8.19
2023-05-08T03:05:22.191Z,8.15
2023-05-08T03:07:19.338Z,8.14
2023-05-08T03:09:22.173Z,8.14
2023-05-08T03:11:21.755Z,8.09
2023-05-08T03:13:20.427Z,8.05
2023-05-08T03:15:21.410Z,8.01
2023-05-08T03:17:20.500Z,7.97
2023-05-08T03:19:23.372Z,7.97
2023-05-08T03:21:22.778Z,7.92
2023-05-08T03:23:21.770Z,7.89
2023-05-08T03:25:21.477Z,7.90
2023-05-08T03:27:18.864Z,7.90
2023-05-08T03:29:16.369Z,7.91
2023-05-08T03:31:18.712Z,7.92
2023-05-08T03:33:26.440Z,7.88
2023-05-08T03:35:37.547Z,7.91
2023-05-08T03:37:41.875Z,7.86
2023-05-08T03:42:57.765Z,7.79
2023-05-08T03:44:54.570Z,7.80
2023-05-08T03:46:51.725Z,7.78
2023-05-08T03:48:48.359Z,7.72
2023-05-08T03:50:43.499Z,7.68
2023-05-08T03:52:41.836Z,7.69
2023-05-08T03:54:37.370Z,7.67
2023-05-08T03:56:33.143Z,7.70
2023-05-08T03:58:36.331Z,7.68
2023-05-08T04:00:41.001Z,7.67
2023-05-08T04:02:44.483Z,7.64
2023-05-08T04:04:43.476Z,7.67
2023-05-08T04:06:49.930Z,7.67
2023-05-08T04:08:53.671Z,7.71
2023-05-08T04:10:53.866Z,7.76
2023-05-08T04:13:00.237Z,7.71
2023-05-08T04:15:03.434Z,7.69
2023-05-08T04:17:05.647Z,7.64
2023-05-08T04:19:04.712Z,7.63
2023-05-08T04:21:01.518Z,7.57
2023-05-08T04:22:58.994Z,7.56
2023-05-08T04:24:59.309Z,7.61
2023-05-08T04:26:55.190Z,7.63
2023-05-08T04:28:51.573Z,7.61
2023-05-08T04:30:50.247Z,7.61
2023-05-08T04:32:47.282Z,7.59
2023-05-08T04:34:43.044Z,7.57
2023-05-08T04:36:39.221Z,7.52
2023-05-08T04:38:34.788Z,7.52
2023-05-08T04:40:31.066Z,7.55
2023-05-08T04:42:27.598Z,7.51
2023-05-08T04:44:23.234Z,7.53
2023-05-08T04:46:21.379Z,7.48
2023-05-08T04:48:17.407Z,7.50
2023-05-08T04:50:14.438Z,7.48
2023-05-08T04:52:10.833Z,7.44
2023-05-08T04:54:06.025Z,7.41
2023-05-08T04:56:01.779Z,7.42
2023-05-08T04:57:57.385Z,7.38
2023-05-08T04:59:53.204Z,7.43
2023-05-08T05:01:51.397Z,7.41
2023-05-08T05:03:46.977Z,7.43
2023-05-08T05:05:42.288Z,7.41
2023-05-08T05:07:43.596Z,7.39
2023-05-08T05:09:39.362Z,7.40
2023-05-08T05:11:34.901Z,7.41
2023-05-08T05:13:30.469Z,7.41
2023-05-08T05:15:25.952Z,7.46
2023-05-08T05:17:23.698Z,7.48
2023-05-08T05:19:19.117Z,7.44
2023-05-08T05:21:14.301Z,7.42
2023-05-08T05:23:09.694Z,7.43
2023-05-08T05:25:04.845Z,7.44
2023-05-08T05:27:00.605Z,7.44
2023-05-08T05:28:55.603Z,7.40
2023-05-08T05:30:51.178Z,7.38
2023-05-08T05:32:49.087Z,7.39
2023-05-08T05:34:44.705Z,7.40
2023-05-08T05:36:40.336Z,7.42
2023-05-08T05:38:36.794Z,7.41
2023-05-08T05:40:35.698Z,7.42
2023-05-08T05:42:34.439Z,7.42
2023-05-08T05:44:31.939Z,7.42
2023-05-08T05:46:32.783Z,7.46
2023-05-08T05:48:31.003Z,7.45
2023-05-08T05:50:27.329Z,7.47
2023-05-08T05:52:22.351Z,7.51
2023-05-08T05:54:17.715Z,7.52
2023-05-08T05:56:15.265Z,7.57
2023-05-08T05:58:10.708Z,7.58
2023-05-08T06:00:07.172Z,7.59
2023-05-08T06:02:03.646Z,7.61
2023-05-08T06:04:01.539Z,7.63
2023-05-08T06:05:57.050Z,7.65
2023-05-08T06:07:52.120Z,7.65
2023-05-08T06:09:48.110Z,7.68
2023-05-08T06:11:43.230Z,7.71
2023-05-08T06:13:38.618Z,7.74
2023-05-08T06:15:33.664Z,7.83
2023-05-08T06:17:29.227Z,7.94
2023-05-08T06:19:28.715Z,7.91
2023-05-08T06:21:24.210Z,7.92
2023-05-08T06:23:19.412Z,7.89
2023-05-08T06:25:15.338Z,7.88
2023-05-08T06:27:10.599Z,7.85
2023-05-08T06:29:06.329Z,7.90
2023-05-08T06:31:02.070Z,7.90
2023-05-08T06:32:57.609Z,7.97
2023-05-08T06:34:55.243Z,8.00
2023-05-08T06:36:50.803Z,8.03
2023-05-08T06:38:45.812Z,8.09
2023-05-08T06:40:44.912Z,8.14
2023-05-08T06:42:39.908Z,8.17
2023-05-08T06:44:35.442Z,8.21
2023-05-08T06:46:30.557Z,8.26
2023-05-08T06:48:29.536Z,8.31
2023-05-08T06:50:27.553Z,8.34
2023-05-08T06:52:25.680Z,8.38
2023-05-08T06:54:20.820Z,8.39
2023-05-08T06:56:16.157Z,8.42
2023-05-08T06:58:11.466Z,8.45
2023-05-08T07:00:07.808Z,8.51
2023-05-08T07:02:02.867Z,8.55
2023-05-08T07:03:58.338Z,8.56
2023-05-08T07:05:56.006Z,8.61
2023-05-08T07:07:54.104Z,8.61
2023-05-08T07:09:49.187Z,8.60
2023-05-08T07:11:44.588Z,8.64
2023-05-08T07:13:39.609Z,8.68
2023-05-08T07:15:35.234Z,8.73
2023-05-08T07:17:31.004Z,8.76
2023-05-08T07:19:26.521Z,8.75
2023-05-08T07:21:24.256Z,8.80
2023-05-08T07:23:20.089Z,8.84
2023-05-08T07:25:16.261Z,8.90
2023-05-08T07:27:11.670Z,8.93
2023-05-08T07:29:06.730Z,8.94
2023-05-08T07:31:02.066Z,9.03
2023-05-08T07:32:57.272Z,9.08
2023-05-08T07:34:52.641Z,9.16
2023-05-08T07:36:50.269Z,9.27
2023-05-08T07:38:45.771Z,9.32
2023-05-08T07:40:40.808Z,9.34
2023-05-08T07:42:41.536Z,9.30
2023-05-08T07:44:43.762Z,9.33
2023-05-08T07:46:47.657Z,9.36
2023-05-08T07:48:42.708Z,9.45
2023-05-08T07:50:38.078Z,9.51
2023-05-08T07:52:35.648Z,9.56
2023-05-08T07:54:31.125Z,9.60
2023-05-08T07:56:26.190Z,9.66
2023-05-08T07:58:23.698Z,9.77
2023-05-08T08:00:19.889Z,9.85
2023-05-08T08:02:15.385Z,9.87
2023-05-08T08:04:11.073Z,9.95
2023-05-08T08:06:07.938Z,9.98
2023-05-08T08:08:05.674Z,10.00
2023-05-08T08:10:01.047Z,10.03
2023-05-08T08:11:56.107Z,10.06
2023-05-08T08:13:51.651Z,10.20
2023-05-08T08:15:46.600Z,10.23
2023-05-08T08:17:42.364Z,10.31
2023-05-08T08:19:37.502Z,10.47
2023-05-08T08:21:33.200Z,10.56
2023-05-08T08:23:30.903Z,10.60
2023-05-08T08:25:27.926Z,10.60
2023-05-08T08:27:23.181Z,10.67
2023-05-08T08:29:18.699Z,10.79
2023-05-08T08:31:13.847Z,10.87
2023-05-08T08:33:09.350Z,10.98
2023-05-08T08:35:04.422Z,11.01
2023-05-08T08:36:59.811Z,11.10
2023-05-08T08:39:01.272Z,11.15
2023-05-08T08:40:59.531Z,11.27
2023-05-08T08:42:54.766Z,11.31
2023-05-08T08:44:50.099Z,11.37
2023-05-08T08:46:50.935Z,11.43
2023-05-08T08:48:48.012Z,11.65
2023-05-08T08:50:46.622Z,11.59
2023-05-08T08:52:46.303Z,11.70
2023-05-08T08:54:45.801Z,11.71
2023-05-08T08:56:44.057Z,11.74
2023-05-08T08:58:46.930Z,11.77
2023-05-08T09:16:25.958Z,12.46
2023-05-08T09:22:50.751Z,12.86
2023-05-08T09:38:40.755Z,13.58
2023-05-08T09:40:36.413Z,13.75
2023-05-08T09:42:41.059Z,13.89
2023-05-08T09:44:47.453Z,13.77
2023-05-08T09:46:50.387Z,13.96
2023-05-08T09:48:47.770Z,14.19
2023-05-08T09:50:51.902Z,14.28
2023-05-08T09:52:51.195Z,14.30
2023-05-08T09:54:51.444Z,14.48
2023-05-08T09:56:48.918Z,14.59
2023-05-08T09:58:50.069Z,14.64
2023-05-08T10:00:45.527Z,14.75
2023-05-08T10:02:42.793Z,14.69
2023-05-08T10:04:40.048Z,14.72
2023-05-08T10:06:38.956Z,14.80
2023-05-08T10:08:34.039Z,15.07
2023-05-08T10:10:32.161Z,14.97
2023-05-08T10:12:27.929Z,15.22
2023-05-08T10:14:26.369Z,15.39
2023-05-08T10:16:22.432Z,15.36
2023-05-08T10:18:20.775Z,15.59
2023-05-08T10:20:18.617Z,15.74
2023-05-08T10:22:19.281Z,15.70
2023-05-08T10:24:19.548Z,15.81
2023-05-08T10:26:16.726Z,15.79
2023-05-08T10:28:18.153Z,15.85
2023-05-08T10:30:17.417Z,16.00
2023-05-08T10:32:14.411Z,15.94
2023-05-08T10:34:11.201Z,15.96
2023-05-08T10:36:07.777Z,16.14
2023-05-08T10:38:08.341Z,16.30
2023-05-08T10:40:05.293Z,16.51
2023-05-08T10:42:08.149Z,16.48
2023-05-08T10:44:04.953Z,16.63
2023-05-08T10:46:02.695Z,16.62
2023-05-08T10:48:06.638Z,16.91
2023-05-08T10:50:22.408Z,17.10
2023-05-08T10:52:24.926Z,17.17
2023-05-08T10:54:34.701Z,17.23
2023-05-08T10:56:30.256Z,17.18
2023-05-08T10:58:34.053Z,17.11
2023-05-08T11:00:30.202Z,17.37
2023-05-08T11:02:37.673Z,17.32
2023-05-08T11:04:34.998Z,17.79
2023-05-08T11:06:49.398Z,17.98
2023-05-08T11:08:54.648Z,17.85
2023-05-08T11:11:05.529Z,17.69
2023-05-08T11:13:01.934Z,17.95
2023-05-08T11:15:03.343Z,18.09
2023-05-08T11:17:15.826Z,18.21
2023-05-08T11:19:22.221Z,18.12
2023-05-08T11:21:26.088Z,18.24
2023-05-08T11:23:28.064Z,18.48
2023-05-08T11:25:47.710Z,18.67
2023-05-08T11:28:19.286Z,18.52
2023-05-08T11:30:53.370Z,18.95
2023-05-08T11:33:34.922Z,18.91
2023-05-08T11:35:56.920Z,19.25
2023-05-08T11:38:22.584Z,19.46
2023-05-08T11:41:02.245Z,19.66
2023-05-08T11:47:09.267Z,19.66
2023-05-08T11:49:30.348Z,19.78
2023-05-08T11:51:53.804Z,19.84
2023-05-08T11:54:26.591Z,20.02
2023-05-08T11:57:15.012Z,20.28
2023-05-08T11:59:21.693Z,20.45
2023-05-08T12:01:23.955Z,20.39
2023-05-08T12:03:23.600Z,20.43
2023-05-08T12:05:31.339Z,20.66
2023-05-08T12:07:31.170Z,20.78
2023-05-08T12:09:28.495Z,20.88
2023-05-08T12:11:32.495Z,20.73
2023-05-08T12:13:31.102Z,20.86
2023-05-08T12:15:30.725Z,21.11
2023-05-08T12:17:35.185Z,21.18
2023-05-08T12:19:34.723Z,21.34
2023-05-08T12:21:36.130Z,21.18
2023-05-08T12:23:34.175Z,20.96
2023-05-08T12:25:31.159Z,21.16
2023-05-08T12:27:29.534Z,21.32
2023-05-08T12:29:27.075Z,21.33
2023-05-08T12:31:25.861Z,21.37
2023-05-08T12:33:23.750Z,21.31
2023-05-08T12:35:25.284Z,21.47
2023-05-08T13:03:18.455Z,21.97
2023-05-08T13:05:48.699Z,22.19
2023-05-08T13:07:44.381Z,22.34
2023-05-08T13:09:41.545Z,22.42
2023-05-08T13:11:39.738Z,22.46
2023-05-08T13:13:42.308Z,22.61
2023-05-08T13:15:42.540Z,22.62
2023-05-08T13:17:43.665Z,22.84
2023-05-08T13:32:30.523Z,23.34
2023-05-08T13:42:12.721Z,23.33
2023-05-08T13:44:30.970Z,23.38
2023-05-08T13:49:57.689Z,23.57
2023-05-08T14:08:18.651Z,24.22
2023-05-08T15:14:06.581Z,24.46
2023-05-08T15:19:55.501Z,24.22
2023-05-08T15:28:45.493Z,24.20
2023-05-08T15:31:01.000Z,24.05
2023-05-08T15:33:27.220Z,24.53
2023-05-08T15:35:31.961Z,24.53
2023-05-08T15:37:38.613Z,24.38
2023-05-08T15:42:33.917Z,23.96
2023-05-08T15:44:52.695Z,23.63
2023-05-08T15:46:49.644Z,23.79
2023-05-08T15:48:45.155Z,23.88
2023-05-08T15:50:43.795Z,23.61
2023-05-08T15:52:39.376Z,23.61
2023-05-08T15:54:34.487Z,23.85
2023-05-08T15:56:33.516Z,23.64
2023-05-08T15:59:23.705Z,23.64
2023-05-08T16:07:48.932Z,23.66
2023-05-08T16:09:47.480Z,23.52
2023-05-08T16:11:50.486Z,23.60
2023-05-08T16:13:48.890Z,23.71
2023-05-08T16:16:07.932Z,23.82
2023-05-08T16:18:20.210Z,23.43
2023-05-08T16:23:31.379Z,23.15
2023-05-08T16:31:01.805Z,23.00
2023-05-08T16:37:17.580Z,22.94
2023-05-08T16:39:42.655Z,22.69
2023-05-08T16:42:05.508Z,22.55
2023-05-08T16:44:42.370Z,22.61
2023-05-08T16:50:23.991Z,22.64
2023-05-08T16:52:43.181Z,22.71
2023-05-08T16:55:16.101Z,22.48
2023-05-08T16:57:39.157Z,22.43
2023-05-08T16:59:39.717Z,22.37
2023-05-08T17:01:45.482Z,22.37
2023-05-08T17:03:52.091Z,22.26
2023-05-08T17:08:27.978Z,22.33
2023-05-08T17:10:49.908Z,22.26
2023-05-08T17:12:49.647Z,21.96
2023-05-08T17:14:46.262Z,21.88
2023-05-08T17:16:47.611Z,21.75
2023-05-08T17:18:46.767Z,21.79
2023-05-08T17:20:42.755Z,21.85
2023-05-08T17:22:38.596Z,21.81
2023-05-08T17:24:35.773Z,21.62
2023-05-08T17:26:49.211Z,21.47
2023-05-08T17:29:24.319Z,21.50
2023-05-08T17:31:52.511Z,21.36
2023-05-08T17:33:48.012Z,21.21
2023-05-08T17:35:48.430Z,21.20
2023-05-08T17:37:49.851Z,21.05
2023-05-08T17:39:48.641Z,21.06
2023-05-08T17:41:47.238Z,20.95
2023-05-08T17:43:45.846Z,20.87
2023-05-08T17:45:46.340Z,20.67
2023-05-08T17:47:42.977Z,20.60
2023-05-08T17:49:45.850Z,20.54
2023-05-08T17:51:46.416Z,20.45
2023-05-08T17:54:48.661Z,20.16
2023-05-08T17:56:44.585Z,20.10
2023-05-08T17:58:40.065Z,20.09
2023-05-08T18:00:35.848Z,20.05
2023-05-08T18:02:46.784Z,20.04
2023-05-08T18:04:42.656Z,19.83
2023-05-08T18:06:41.638Z,19.87
2023-05-08T18:09:15.502Z,19.88
2023-05-08T18:17:55.090Z,19.61
2023-05-08T18:27:00.406Z,19.14
2023-05-08T18:33:10.896Z,19.14
2023-05-08T19:30:56.011Z,17.36
2023-05-08T20:22:19.247Z,16.26
2023-05-08T20:54:50.660Z,15.21
2023-05-08T20:57:34.173Z,15.23
2023-05-08T21:54:47.836Z,14.20
2023-05-08T21:56:44.095Z,14.23
2023-05-08T21:58:43.564Z,14.19
2023-05-08T22:00:42.627Z,14.12
2023-05-08T22:23:25.289Z,13.74
2023-05-08T22:29:12.726Z,13.59
2023-05-08T22:31:12.726Z,13.55
2023-05-08T22:45:24.746Z,13.35
2023-05-08T22:47:31.523Z,13.23
2023-05-08T22:49:32.611Z,13.21
2023-05-08T22:52:18.521Z,13.15
2023-05-08T22:54:41.906Z,13.19
2023-05-08T22:57:00.921Z,13.20
2023-05-08T22:59:35.797Z,13.16
2023-05-08T23:54:26.877Z,11.74
